Time;durP1;ratioP1;P1;durP2;ratioP2;P2;SDS_P1;SDS_P2;PMS_P1;PMS_P2;Temp;Humidity;BMP_temperature;BMP_pressure;BME280_temperature;BME280_humidity;BME280_pressure;Samples;Min_cycle;Max_cycle;Signal;HPM_P1;HPM_P2
2023/03/02 00:02:21;;;;;;;8.50;3.42;;;1.50;99.90;;;1.23;82.37;101647.09;5124362;28;20046;-85
2023/03/02 00:04:57;;;;;;;8.35;3.22;;;1.50;99.90;;;1.22;82.50;101647.88;5144746;28;20062;-86
2023/03/02 00:07:34;;;;;;;7.93;3.08;;;1.50;99.90;;;1.20;82.53;101648.53;5128810;28;20054;-87
2023/03/02 00:10:09;;;;;;;10.20;3.78;;;1.50;99.90;;;1.16;82.89;101651.59;5153858;28;20298;-85
2023/03/02 00:12:43;;;;;;;;;;;1.40;99.90;;;1.12;82.94;101660.72;5131161;28;20050;-85
2023/03/02 00:15:16;;;;;;;8.00;3.17;;;1.40;99.90;;;1.08;83.07;101653.50;5158206;28;19968;-86
2023/03/02 00:17:51;;;;;;;8.95;3.10;;;1.40;99.90;;;1.05;84.23;101664.44;5143217;28;20046;-86
2023/03/02 00:20:23;;;;;;;8.18;3.80;;;1.30;99.90;;;1.02;84.10;101664.16;5143779;28;20072;-86
2023/03/02 00:22:56;;;;;;;8.88;3.60;;;1.30;99.90;;;0.99;84.55;101663.00;5128482;28;20507;-85
2023/03/02 00:25:29;;;;;;;9.02;3.50;;;1.30;99.90;;;0.97;84.26;101661.94;5125898;28;20050;-86
2023/03/02 00:28:02;;;;;;;8.52;3.47;;;1.30;99.90;;;0.91;84.58;101654.59;5127335;28;20054;-86
2023/03/02 00:30:35;;;;;;;12.38;4.10;;;1.20;99.90;;;0.90;84.96;101660.50;5137988;28;20459;-85
2023/03/02 00:33:09;;;;;;;8.35;3.22;;;1.20;99.90;;;0.89;85.13;101663.84;5147926;28;20050;-85
2023/03/02 00:35:42;;;;;;;8.98;3.67;;;1.20;99.90;;;0.88;85.86;101663.72;5129405;28;20054;-85
2023/03/02 00:38:15;;;;;;;7.55;3.42;;;1.20;99.90;;;0.86;85.60;101666.16;5123991;28;20047;-85
2023/03/02 00:40:49;;;;;;;7.45;3.60;;;1.20;99.90;;;0.85;85.16;101659.25;5146043;28;20046;-86
2023/03/02 00:43:26;;;;;;;9.40;3.97;;;1.20;99.90;;;0.82;85.77;101665.00;5147663;28;20054;-85
2023/03/02 00:45:58;;;;;;;7.65;3.25;;;1.10;99.90;;;0.80;85.88;101663.97;5152818;28;20090;-85
2023/03/02 00:48:32;;;;;;;8.02;3.53;;;1.10;99.90;;;0.79;86.39;101657.03;5096830;28;20051;-86
2023/03/02 00:51:07;;;;;;;8.15;3.80;;;1.10;99.90;;;0.81;86.79;101657.16;5126669;28;20109;-85
2023/03/02 00:53:41;;;;;;;8.30;3.17;;;1.10;99.90;;;0.80;86.50;101650.22;5129551;28;20051;-85
2023/03/02 00:56:16;;;;;;;8.85;3.58;;;1.10;99.90;;;0.79;86.30;101644.19;5127730;28;20047;-85
2023/03/02 00:58:53;;;;;;;8.63;3.75;;;1.10;99.90;;;0.78;86.51;101651.75;5112757;28;20510;-85
2023/03/02 01:01:26;;;;;;;7.35;3.28;;;1.10;99.90;;;0.75;86.15;101652.38;5127395;28;20050;-86
2023/03/02 01:04:00;;;;;;;9.02;3.60;;;1.10;99.90;;;0.72;85.99;101647.00;5123219;28;20129;-86
2023/03/02 01:06:46;;;;;;;8.88;3.80;;;1.00;99.90;;;0.70;85.97;101648.50;5155101;28;20069;-86
2023/03/02 01:09:18;;;;;;;10.50;3.90;;;1.00;99.90;;;0.65;86.67;101647.25;5132092;28;20045;-85
2023/03/02 01:11:50;;;;;;;8.13;3.58;;;1.00;99.90;;;0.65;86.33;101654.00;5218560;23;20062;-67
2023/03/02 01:14:22;;;;;;;9.18;3.63;;;1.00;99.90;;;0.63;86.83;101646.19;5155304;28;20042;-68
2023/03/02 01:16:55;;;;;;;10.52;3.70;;;1.00;99.90;;;0.60;86.80;101640.78;5140518;28;20046;-70
2023/03/02 01:19:30;;;;;;;10.07;4.50;;;0.90;99.90;;;0.59;87.02;101638.06;5160823;28;20057;-67
2023/03/02 01:22:02;;;;;;;7.85;4.03;;;0.90;99.90;;;0.57;87.15;101634.47;5137580;28;20450;-68
2023/03/02 01:24:35;;;;;;;8.40;3.80;;;0.90;99.90;;;0.55;87.96;101631.78;5143324;28;20422;-67
2023/03/02 01:27:07;;;;;;;7.53;3.60;;;0.90;99.90;;;0.53;87.75;101628.19;5150860;28;20039;-68
2023/03/02 01:29:39;;;;;;;10.27;3.85;;;0.80;99.90;;;0.52;87.57;101628.94;5151739;28;20047;-67
2023/03/02 01:32:11;;;;;;;7.70;3.65;;;0.90;99.90;;;0.51;87.61;101620.34;5137040;28;20050;-66
2023/03/02 01:34:45;;;;;;;7.78;3.85;;;0.80;99.90;;;0.50;87.98;101627.91;5136575;28;20451;-69
2023/03/02 01:37:19;;;;;;;11.02;3.72;;;0.80;99.90;;;0.50;88.51;101607.38;5141273;28;20043;-67
2023/03/02 01:39:53;;;;;;;9.63;3.72;;;0.80;99.90;;;0.50;88.55;101617.66;5153355;28;20093;-68
2023/03/02 01:42:25;;;;;;;9.88;4.68;;;0.80;99.90;;;0.49;88.37;101610.72;5154595;28;20395;-69
2023/03/02 01:44:58;;;;;;;7.50;3.38;;;0.80;99.90;;;0.48;88.68;101603.78;5155537;28;20067;-68
2023/03/02 01:47:35;;;;;;;9.45;3.50;;;0.80;99.90;;;0.45;89.08;101600.94;5150491;28;20055;-68
2023/03/02 01:50:23;;;;;;;8.27;3.55;;;0.80;99.90;;;0.45;88.92;101600.94;5149066;28;20034;-68
2023/03/02 01:52:59;;;;;;;7.80;3.65;;;0.80;99.90;;;0.42;89.35;101599.03;5131420;28;20108;-68
2023/03/02 01:55:34;;;;;;;7.70;3.50;;;0.70;99.90;;;0.40;89.27;101590.31;5143786;28;20039;-67
2023/03/02 01:58:07;;;;;;;8.73;3.63;;;0.80;99.90;;;0.40;89.31;101599.66;5129303;28;20043;-68
2023/03/02 02:00:40;;;;;;;10.55;3.50;;;0.70;99.90;;;0.39;89.38;101598.78;5147048;28;20055;-68
2023/03/02 02:03:19;;;;;;;8.43;3.67;;;0.70;99.90;;;0.37;89.56;101599.38;5141597;28;20039;-67
2023/03/02 02:06:05;;;;;;;9.77;3.85;;;0.70;99.90;;;0.34;89.75;101591.44;5142801;28;20039;-68
2023/03/02 02:08:38;;;;;;;8.90;3.65;;;0.70;99.90;;;0.32;89.86;101591.28;5144442;28;20061;-68
2023/03/02 02:11:12;;;;;;;8.70;3.45;;;0.60;99.90;;;0.31;89.76;101597.16;5144270;28;20045;-69
2023/03/02 02:13:44;;;;;;;7.95;3.50;;;0.60;99.90;;;0.28;90.08;101599.47;5144021;28;20050;-68
2023/03/02 02:16:17;;;;;;;7.97;3.55;;;0.60;99.90;;;0.26;89.56;101586.53;5148131;28;20046;-68
2023/03/02 02:18:51;;;;;;;9.27;3.63;;;0.60;99.90;;;0.23;89.56;101586.25;5134266;28;20308;-67
2023/03/02 02:21:27;;;;;;;7.97;3.20;;;0.60;99.90;;;0.21;90.04;101592.00;5131814;28;20055;-67
2023/03/02 02:24:06;;;;;;;;;;;0.50;99.90;;;0.18;90.04;101590.06;5144503;28;20043;-69
2023/03/02 02:26:44;;;;;;;7.72;3.40;;;0.50;99.90;;;0.16;90.01;101583.91;5137112;28;19969;-68
2023/03/02 02:29:21;;;;;;;6.45;3.20;;;0.50;99.90;;;0.17;89.58;101589.94;5159560;28;20571;-68
2023/03/02 02:32:00;;;;;;;7.53;3.20;;;0.50;99.90;;;0.15;89.19;101582.09;5131430;28;20531;-67
2023/03/02 02:34:38;;;;;;;7.32;3.10;;;0.50;99.90;;;0.15;89.54;101578.66;5123653;28;20575;-68
2023/03/02 02:37:17;;;;;;;7.97;3.65;;;0.50;99.90;;;0.15;88.96;101578.66;5148390;28;20049;-67
2023/03/02 02:39:51;;;;;;;10.75;3.83;;;0.50;99.90;;;0.15;88.78;101570.94;5157519;28;20137;-67
2023/03/02 02:42:33;;;;;;;7.53;3.08;;;0.50;99.90;;;0.16;89.17;101568.50;5132067;28;20142;-67
2023/03/02 02:45:19;;;;;;;9.75;3.75;;;0.50;99.90;;;0.16;88.78;101568.50;5136794;28;20039;-68
2023/03/02 02:47:53;;;;;;;8.88;4.20;;;0.50;99.90;;;0.18;89.10;101576.34;5155732;28;20485;-69
2023/03/02 02:50:31;;;;;;;8.90;3.65;;;0.50;99.90;;;0.17;88.83;101570.31;5149220;28;20050;-67
2023/03/02 02:53:24;;;;;;;8.90;4.00;;;0.50;99.90;;;0.15;88.62;101576.09;5149635;28;20380;-68
2023/03/02 02:55:58;;;;;;;9.35;3.38;;;0.50;99.90;;;0.12;88.70;101570.66;5164775;28;20042;-67
2023/03/02 02:58:38;;;;;;;7.82;3.15;;;0.50;99.90;;;0.12;88.82;101574.13;5147592;28;20050;-68
2023/03/02 03:01:14;;;;;;;6.93;3.60;;;0.50;99.90;;;0.10;88.93;101575.66;5143627;28;20044;-68
2023/03/02 03:03:51;;;;;;;7.10;3.30;;;0.50;99.90;;;0.10;88.74;101579.91;5144896;28;20046;-68
2023/03/02 03:06:29;;;;;;;8.10;4.10;;;0.50;99.90;;;0.09;88.82;101586.69;5142766;28;20473;-68
2023/03/02 03:09:02;;;;;;;7.72;3.40;;;0.40;99.90;;;0.09;88.92;101571.31;5138863;28;20051;-68
2023/03/02 03:11:46;;;;;;;10.02;3.70;;;0.40;99.90;;;0.08;88.48;101569.50;5141691;28;20197;-68
2023/03/02 03:14:26;;;;;;;11.45;3.75;;;0.40;99.90;;;0.11;88.59;101569.78;5133497;28;20173;-68
2023/03/02 03:17:00;;;;;;;7.60;3.25;;;0.40;99.90;;;0.10;89.13;101570.53;5138671;28;20785;-68
2023/03/02 03:19:33;;;;;;;6.07;3.17;;;0.40;99.90;;;0.10;89.01;101567.06;5138717;28;20050;-69
2023/03/02 03:22:06;;;;;;;7.53;3.58;;;0.40;99.90;;;0.08;89.06;101566.94;5147513;28;20034;-68
2023/03/02 03:24:42;;;;;;;8.52;3.17;;;0.40;99.90;;;0.04;89.18;101564.88;5138500;28;20503;-68
2023/03/02 03:27:16;;;;;;;9.95;3.40;;;0.40;99.90;;;0.03;88.95;101570.75;5138532;28;20101;-69
2023/03/02 03:29:51;;;;;;;6.55;3.33;;;0.40;99.90;;;0.01;89.23;101556.03;5144608;28;20053;-67
2023/03/02 03:32:25;;;;;;;6.88;3.67;;;0.30;99.90;;;0.01;89.92;101558.59;5135085;28;20057;-69
2023/03/02 03:35:00;;;;;;;8.18;3.55;;;0.40;99.90;;;0.00;89.97;101555.13;5130708;28;20070;-68
2023/03/02 03:37:37;;;;;;;8.63;3.60;;;0.40;99.90;;;0.00;89.73;101555.13;5138214;28;20503;-70
2023/03/02 03:40:10;;;;;;;7.65;3.38;;;0.30;99.90;;;-0.02;89.85;101554.06;5146588;28;20145;-68
2023/03/02 03:42:46;;;;;;;7.82;3.63;;;0.30;99.90;;;-0.05;90.44;101558.94;5146423;28;20077;-68
2023/03/02 03:45:20;;;;;;;7.78;3.35;;;0.30;99.90;;;-0.07;90.22;101560.44;5156781;28;20042;-67
2023/03/02 03:47:52;;;;;;;8.75;3.60;;;0.30;99.90;;;-0.08;90.34;101556.06;5163888;28;20479;-68
2023/03/02 03:50:25;;;;;;;8.10;3.67;;;0.30;99.90;;;-0.09;90.35;101556.84;5164357;28;20042;-68
2023/03/02 03:52:57;;;;;;;9.80;3.50;;;0.20;99.90;;;-0.13;90.75;101559.88;5138062;28;20050;-71
2023/03/02 03:55:33;;;;;;;7.72;3.22;;;0.20;99.90;;;-0.14;90.70;101563.22;5138948;28;20047;-69
2023/03/02 03:58:05;;;;;;;9.40;3.72;;;0.20;99.90;;;-0.19;90.77;101572.19;5140662;28;20518;-67
2023/03/02 04:00:39;;;;;;;8.70;3.22;;;0.20;99.90;;;-0.23;90.87;101571.00;5145355;28;20594;-66
2023/03/02 04:03:15;;;;;;;9.73;3.72;;;0.20;99.90;;;-0.25;90.65;101561.38;5134369;28;20102;-67
2023/03/02 04:05:47;;;;;;;9.45;3.30;;;0.10;99.90;;;-0.25;90.99;101558.81;5161746;28;20046;-68
2023/03/02 04:08:21;;;;;;;10.00;3.95;;;0.10;99.90;;;-0.26;90.88;101565.63;5163696;28;20485;-68
2023/03/02 04:10:53;;;;;;;6.20;2.90;;;0.10;99.90;;;-0.28;90.95;101575.69;5143331;28;20150;-68
2023/03/02 04:13:25;;;;;;;9.85;4.10;;;0.10;99.90;;;-0.32;91.37;101565.97;5151749;28;20043;-68
2023/03/02 04:16:00;;;;;;;10.15;3.28;;;0.10;99.90;;;-0.34;91.50;101562.34;5146746;28;20133;-67
2023/03/02 04:18:33;;;;;;;8.52;3.47;;;0.00;99.90;;;-0.38;91.85;101567.97;5131026;28;20101;-68
2023/03/02 04:21:05;;;;;;;7.18;3.28;;;0.00;99.90;;;-0.39;91.74;101571.28;5162752;28;20066;-68
2023/03/02 04:23:37;;;;;;;7.30;3.22;;;0.00;99.90;;;-0.39;92.51;101568.72;5145269;28;20101;-67
2023/03/02 04:26:09;;;;;;;9.02;3.67;;;0.00;99.90;;;-0.39;92.41;101563.59;5138218;28;20038;-67
2023/03/02 04:28:42;;;;;;;8.52;3.85;;;0.00;99.90;;;-0.36;92.13;101566.44;5145849;28;20412;-68
2023/03/02 04:31:17;;;;;;;8.13;3.58;;;0.00;99.90;;;-0.35;92.29;101565.66;5145698;28;20042;-67
2023/03/02 04:33:49;;;;;;;9.68;3.78;;;0.00;99.90;;;-0.37;92.79;101559.50;5161042;28;20519;-68
2023/03/02 04:36:22;;;;;;;12.60;4.22;;;0.00;99.90;;;-0.38;92.05;101557.72;5140386;28;20050;-68
2023/03/02 04:38:55;;;;;;;11.43;4.30;;;0.00;99.90;;;-0.36;92.37;101569.00;5142574;28;20055;-68
2023/03/02 04:41:27;;;;;;;7.78;3.15;;;0.00;99.90;;;-0.35;92.51;101565.66;5150068;28;20050;-67
2023/03/02 04:44:00;;;;;;;10.35;3.83;;;0.00;99.90;;;-0.33;92.16;101560.66;5159724;28;20516;-68
2023/03/02 04:46:34;;;;;;;10.25;3.63;;;0.00;99.90;;;-0.34;92.41;101566.56;5159002;28;20057;-69
2023/03/02 04:49:06;;;;;;;8.10;3.20;;;0.00;99.90;;;-0.37;92.34;101566.28;5162466;28;20038;-67
2023/03/02 04:51:42;;;;;;;8.80;3.95;;;0.00;99.90;;;-0.40;91.98;101561.78;5154735;28;20046;-68
2023/03/02 04:54:18;;;;;;;8.52;3.85;;;0.00;99.90;;;-0.42;92.27;101560.75;5139144;28;20135;-67
2023/03/02 04:56:51;;;;;;;7.88;3.03;;;0.00;99.90;;;-0.41;92.07;101559.09;5162878;28;20043;-68
2023/03/02 04:59:26;;;;;;;6.57;3.47;;;-0.10;99.90;;;-0.43;92.32;101555.50;5155188;28;20170;-69
2023/03/02 05:02:01;;;;;;;8.27;3.55;;;0.00;99.90;;;-0.47;92.34;101551.75;5162613;28;20042;-68
2023/03/02 05:04:33;;;;;;;9.18;3.72;;;-0.10;99.90;;;-0.52;92.74;101553.00;5163129;28;20372;-68
2023/03/02 05:07:05;;;;;;;9.52;4.32;;;-0.10;99.90;;;-0.51;92.88;101551.34;5154928;28;20062;-68
2023/03/02 05:09:37;;;;;;;8.30;3.72;;;-0.10;99.90;;;-0.51;92.46;101551.34;5154525;28;20043;-69
2023/03/02 05:12:10;;;;;;;7.47;3.17;;;-0.10;99.90;;;-0.55;92.94;101545.94;5130369;28;20038;-69
2023/03/02 05:14:42;;;;;;;11.02;3.60;;;-0.20;99.90;;;-0.56;93.15;101545.78;5161939;28;20129;-69
2023/03/02 05:17:16;;;;;;;9.55;3.42;;;-0.20;99.90;;;-0.60;93.14;101551.38;5155529;28;20055;-67
2023/03/02 05:19:48;;;;;;;7.00;3.17;;;-0.20;99.90;;;-0.63;93.28;101564.81;5134634;28;20091;-69
2023/03/02 05:22:22;;;;;;;10.98;4.22;;;-0.20;99.90;;;-0.64;93.57;101560.47;5162666;28;20385;-68
2023/03/02 05:24:54;;;;;;;9.23;3.70;;;-0.20;99.90;;;-0.64;93.89;101563.03;5162174;28;20506;-69
2023/03/02 05:27:26;;;;;;;7.97;3.65;;;-0.30;99.90;;;-0.66;93.96;101568.75;5155054;28;20042;-67
2023/03/02 05:29:58;;;;;;;8.68;4.13;;;-0.30;99.90;;;-0.67;94.11;101565.28;5162116;28;20055;-68
2023/03/02 05:32:32;;;;;;;8.75;3.92;;;-0.30;99.90;;;-0.69;94.09;101571.06;5156249;28;20430;-67
2023/03/02 05:35:04;;;;;;;9.80;3.40;;;-0.30;99.90;;;-0.71;94.16;101570.03;5137518;28;20048;-67
2023/03/02 05:37:40;;;;;;;7.70;3.30;;;-0.30;99.90;;;-0.74;94.04;101564.59;5146038;28;20038;-69
2023/03/02 05:40:16;;;;;;;9.23;3.92;;;-0.30;99.90;;;-0.77;94.52;101559.22;5130990;28;20526;-67
2023/03/02 05:42:49;;;;;;;7.40;3.15;;;-0.30;99.90;;;-0.79;94.32;101568.38;5147520;28;20046;-67
2023/03/02 05:45:26;;;;;;;9.23;3.50;;;-0.40;99.90;;;-0.78;94.56;101570.19;5156396;28;20050;-67
2023/03/02 05:47:59;;;;;;;10.18;4.03;;;-0.30;99.90;;;-0.77;94.23;101569.44;5163481;28;20046;-68
2023/03/02 05:50:32;;;;;;;13.75;4.95;;;-0.40;99.90;;;-0.75;93.80;101571.38;5169836;28;20052;-67
2023/03/02 05:53:05;;;;;;;9.55;4.05;;;-0.30;99.90;;;-0.74;93.86;101574.84;5166398;28;20578;-67
2023/03/02 05:55:37;;;;;;;10.73;4.40;;;-0.30;99.90;;;-0.73;93.55;101579.19;5164974;28;20483;-70
2023/03/02 05:58:17;;;;;;;10.73;4.97;;;-0.30;99.90;;;-0.75;93.83;101571.38;5169066;28;20403;-68
2023/03/02 06:00:49;;;;;;;9.02;3.75;;;-0.30;99.90;;;-0.74;93.56;101577.41;5168892;28;20495;-68
2023/03/02 06:03:23;;;;;;;6.95;3.28;;;-0.30;99.90;;;-0.75;94.10;101573.03;5168829;28;20049;-68
2023/03/02 06:05:55;;;;;;;7.75;3.17;;;-0.30;99.90;;;-0.79;94.41;101571.84;5168655;28;20048;-68
2023/03/02 06:08:27;;;;;;;7.35;3.30;;;-0.40;99.90;;;-0.81;93.96;101573.38;5169060;28;20046;-67
2023/03/02 06:10:59;;;;;;;7.10;3.75;;;-0.40;99.90;;;-0.86;94.46;101569.50;5166522;28;20406;-68
2023/03/02 06:13:31;;;;;;;7.78;3.40;;;-0.40;99.90;;;-0.88;94.36;101574.47;5163584;28;20042;-67
2023/03/02 06:16:04;;;;;;;8.68;2.92;;;-0.50;99.90;;;-0.91;94.60;101573.31;5168406;28;20062;-67
2023/03/02 06:18:39;;;;;;;7.25;3.15;;;-0.50;99.90;;;-0.93;94.66;101580.81;5151306;28;20042;-71
2023/03/02 06:21:11;;;;;;;6.90;3.03;;;-0.50;99.90;;;-0.93;94.91;101585.03;5153057;28;20104;-67
2023/03/02 06:23:43;;;;;;;9.50;3.70;;;-0.50;99.90;;;-0.93;95.16;101585.94;5143553;28;20047;-66
2023/03/02 06:26:17;;;;;;;7.70;3.40;;;-0.50;99.90;;;-0.93;95.69;101585.94;5153511;28;20034;-68
2023/03/02 06:28:49;;;;;;;7.35;3.47;;;-0.50;99.90;;;-0.93;95.73;101585.94;5150315;28;20057;-68
2023/03/02 06:31:21;;;;;;;11.43;4.22;;;-0.50;99.90;;;-0.92;96.18;101585.16;5153991;28;20054;-68
2023/03/02 06:33:55;;;;;;;9.15;3.33;;;-0.50;99.90;;;-0.85;96.53;101582.44;5143360;28;20049;-67
2023/03/02 06:36:27;;;;;;;10.40;5.55;;;-0.40;99.90;;;-0.75;96.36;101585.84;5155097;28;20047;-67
2023/03/02 06:38:59;;;;;;;7.55;3.22;;;-0.30;99.90;;;-0.68;95.84;101596.78;5156449;28;20042;-68
2023/03/02 06:41:32;;;;;;;6.30;3.03;;;-0.30;99.90;;;-0.66;95.79;101591.81;5155227;28;20053;-68
2023/03/02 06:44:04;;;;;;;9.52;3.30;;;-0.20;99.90;;;-0.59;95.68;101595.09;5160294;28;20518;-68
2023/03/02 06:46:37;;;;;;;8.88;3.33;;;-0.20;99.90;;;-0.22;95.48;101587.28;5160764;28;20522;-67
2023/03/02 06:49:12;;;;;;;8.48;3.78;;;0.00;99.90;;;0.12;94.73;101594.63;5160109;28;20118;-68
2023/03/02 06:51:44;;;;;;;8.60;2.90;;;0.30;99.90;;;0.24;93.93;101588.03;5160413;28;20068;-68
2023/03/02 06:54:16;;;;;;;9.60;3.58;;;0.50;99.90;;;0.29;93.11;101601.28;5168493;28;20056;-68
2023/03/02 06:56:48;;;;;;;7.15;2.85;;;0.60;99.90;;;0.28;92.66;101598.59;5159709;28;20495;-68
2023/03/02 06:59:21;;;;;;;6.10;2.88;;;0.60;99.90;;;0.27;92.38;101605.38;5156262;28;20050;-67
2023/03/02 07:01:53;;;;;;;6.68;2.88;;;0.60;99.90;;;0.32;92.82;101600.63;5143880;28;20058;-68
2023/03/02 07:04:27;;;;;;;8.25;3.40;;;0.70;99.90;;;0.60;92.91;101599.75;5165258;28;20060;-59
2023/03/02 07:06:59;;;;;;;8.98;3.15;;;0.80;99.90;;;1.47;92.48;101606.28;5164894;28;20050;-57
2023/03/02 07:09:33;;;;;;;6.85;3.45;;;1.30;99.90;;;2.76;89.32;101604.78;5164703;28;20058;-57
2023/03/02 07:12:05;;;;;;;8.80;3.78;;;2.10;99.90;;;4.17;84.42;101603.47;5250620;23;20020;-58
2023/03/02 07:14:37;;;;;;;10.68;4.25;;;3.30;99.90;;;5.50;78.98;101608.63;5165018;28;20050;-59
2023/03/02 07:17:09;;;;;;;9.95;4.38;;;4.40;99.90;;;6.63;74.13;101603.16;5155638;28;20589;-59
2023/03/02 07:19:43;;;;;;;11.10;4.53;;;5.40;99.60;;;7.65;70.26;101593.00;5152956;28;20055;-59
2023/03/02 07:22:15;;;;;;;12.02;4.50;;;6.40;96.80;;;8.58;66.62;101602.69;5144220;28;20495;-58
2023/03/02 07:24:47;;;;;;;9.27;4.70;;;7.30;93.40;;;9.39;62.76;101592.38;5144223;28;20488;-59
2023/03/02 07:27:19;;;;;;;9.98;4.63;;;8.10;90.20;;;10.08;60.55;101603.66;5144732;28;20038;-60
2023/03/02 07:29:51;;;;;;;11.43;4.70;;;8.80;85.40;;;10.69;58.42;101600.53;5143706;28;20054;-57
2023/03/02 07:32:23;;;;;;;11.05;4.85;;;9.40;80.80;;;11.21;56.42;101598.59;5144740;28;20042;-58
2023/03/02 07:34:57;;;;;;;10.63;5.22;;;9.90;76.60;;;11.62;54.81;101600.44;5144203;28;20480;-59
2023/03/02 07:37:29;;;;;;;11.52;4.72;;;10.30;73.60;;;11.98;54.19;101602.88;5144325;28;20046;-58
2023/03/02 07:40:02;;;;;;;10.75;4.97;;;10.70;71.80;;;12.20;53.27;101599.44;5144291;28;20073;-57
2023/03/02 07:42:34;;;;;;;11.00;4.57;;;10.90;69.90;;;12.06;52.82;101596.25;5143995;28;20047;-56
2023/03/02 07:45:09;;;;;;;8.90;4.63;;;10.90;68.50;;;11.40;53.23;101592.50;5134481;28;20051;-56
2023/03/02 07:47:41;;;;;;;11.55;4.22;;;10.50;68.20;;;10.43;54.43;101597.63;5152888;28;20054;-56
2023/03/02 07:50:15;;;;;;;10.15;4.63;;;9.90;68.70;;;9.38;56.07;101597.47;5144637;28;20303;-58
2023/03/02 07:52:47;;;;;;;12.32;5.22;;;9.10;70.10;;;8.81;57.89;101598.78;5144643;28;20047;-56
2023/03/02 07:55:19;;;;;;;10.88;4.47;;;8.50;71.80;;;8.29;58.88;101606.22;5144995;28;20034;-56
2023/03/02 07:57:51;;;;;;;14.57;5.03;;;8.00;73.10;;;7.57;60.56;101602.03;5127021;28;20043;-56
2023/03/02 08:00:24;;;;;;;11.50;5.30;;;7.50;74.30;;;6.92;61.38;101606.69;5144978;28;20400;-56
2023/03/02 08:02:56;;;;;;;12.65;5.88;;;6.90;75.80;;;6.35;63.25;101607.38;5152309;28;20384;-57
2023/03/02 08:05:30;;;;;;;13.57;5.30;;;6.40;77.40;;;5.88;65.06;101602.56;5144874;28;20050;-57
2023/03/02 08:08:02;;;;;;;8.82;2.90;;;5.90;80.50;;;6.12;91.05;101599.00;5155296;28;20050;-61
2023/03/02 08:10:35;;;;;;;9.52;4.20;;;6.20;99.90;;;6.92;79.01;101604.09;5133413;28;20280;-58
2023/03/02 08:13:07;;;;;;;13.27;4.35;;;6.80;99.90;;;7.79;70.56;101591.22;5140808;28;20046;-57
2023/03/02 08:15:39;;;;;;;13.77;5.63;;;7.10;94.80;;;8.87;65.00;101592.19;5137839;28;20122;-56
2023/03/02 08:18:11;;;;;;;11.95;5.55;;;7.60;91.40;;;9.89;61.11;101601.84;5139704;28;20039;-55
2023/03/02 08:20:45;;;;;;;12.57;5.18;;;8.30;87.70;;;10.81;58.06;101602.00;5139189;28;20050;-56
2023/03/02 08:23:17;;;;;;;13.60;5.25;;;9.00;82.90;;;11.51;55.91;101599.09;5141336;28;20559;-56
2023/03/02 08:25:49;;;;;;;11.30;5.22;;;9.60;78.80;;;11.99;54.05;101599.41;5143997;28;20050;-57
2023/03/02 08:28:22;;;;;;;12.38;5.43;;;10.10;75.20;;;12.43;52.79;101602.97;5156326;28;20034;-57
2023/03/02 08:30:59;;;;;;;16.55;5.85;;;10.50;72.80;;;12.89;51.50;101599.53;5143149;28;20097;-56
2023/03/02 08:33:31;;;;;;;12.82;5.10;;;11.00;70.00;;;13.23;50.23;101607.81;5150179;28;20049;-56
2023/03/02 08:36:07;;;;;;;13.00;6.03;;;11.40;67.90;;;13.53;49.27;101596.69;5143144;28;20046;-57
2023/03/02 08:38:40;;;;;;;13.50;5.75;;;11.70;65.70;;;13.74;48.81;101601.78;5143058;28;21745;-56
2023/03/02 08:41:15;;;;;;;13.65;5.80;;;12.00;64.50;;;13.81;48.34;101604.66;5142725;28;20409;-57
2023/03/02 08:43:47;;;;;;;9.68;4.28;;;12.10;63.50;;;13.67;49.45;101595.44;5141168;28;20548;-57
2023/03/02 08:46:20;;;;;;;9.23;4.63;;;12.10;64.90;;;13.94;51.94;101598.13;5126885;28;20046;-57
2023/03/02 08:48:52;;;;;;;12.75;5.25;;;12.30;68.10;;;14.17;48.54;101588.41;5158687;28;20249;-56
2023/03/02 08:51:26;;;;;;;9.02;4.70;;;12.70;63.00;;;14.25;47.40;101592.16;5151795;28;20129;-57
2023/03/02 08:53:59;;;;;;;12.88;5.07;;;12.80;61.20;;;14.21;47.01;101585.03;5152901;28;20050;-57
2023/03/02 08:56:34;;;;;;;9.93;4.70;;;12.90;60.40;;;14.15;47.16;101579.59;5140353;28;20046;-57
2023/03/02 08:59:11;;;;;;;12.55;5.10;;;12.90;60.20;;;13.88;46.65;101584.78;5152740;28;20130;-58
2023/03/02 09:01:43;;;;;;;9.00;4.40;;;12.70;59.20;;;13.66;46.91;101582.31;5110471;28;20061;-58
2023/03/02 09:04:15;;;;;;;9.98;4.72;;;12.60;59.20;;;13.54;47.42;101583.63;5127240;28;20042;-57
2023/03/02 09:06:49;;;;;;;10.05;4.47;;;12.70;59.50;;;13.21;47.01;101580.72;5127502;28;20051;-56
2023/03/02 09:09:21;;;;;;;10.35;4.85;;;12.50;58.60;;;12.68;47.63;101566.47;5115975;28;20051;-57
2023/03/02 09:11:53;;;;;;;11.70;5.10;;;12.20;58.70;;;12.18;48.68;101575.81;5123139;28;20054;-56
2023/03/02 09:14:26;;;;;;;11.85;5.60;;;11.80;59.50;;;11.81;49.82;101573.44;5131169;28;20462;-57
2023/03/02 09:16:58;;;;;;;12.50;5.10;;;11.50;60.60;;;11.43;50.35;101568.25;5126225;28;20053;-56
2023/03/02 09:19:30;;;;;;;11.50;4.72;;;11.20;60.80;;;11.17;50.83;101572.31;5116374;28;20043;-54
2023/03/02 09:22:03;;;;;;;11.35;5.20;;;10.90;61.40;;;10.90;50.91;101564.16;5132903;28;20053;-56
2023/03/02 09:24:36;;;;;;;11.63;4.97;;;10.70;61.20;;;10.68;50.98;101568.34;5128404;28;20134;-57
2023/03/02 09:27:08;;;;;;;9.35;4.50;;;10.50;61.30;;;10.51;51.23;101564.97;5105688;28;20047;-57
2023/03/02 09:29:40;;;;;;;10.63;4.70;;;10.30;61.70;;;10.49;51.67;101560.50;5130713;28;20058;-56
2023/03/02 09:32:14;;;;;;;9.27;4.40;;;10.20;62.20;;;10.51;51.48;101553.66;5130718;28;20524;-59
2023/03/02 09:34:46;;;;;;;9.25;4.75;;;10.20;62.10;;;10.52;52.15;101555.44;5123053;28;20057;-56
2023/03/02 09:37:20;;;;;;;11.18;4.60;;;10.20;62.80;;;10.49;52.38;101556.16;5134326;28;20054;-56
2023/03/02 09:39:52;;;;;;;12.65;5.55;;;10.20;62.90;;;10.55;52.33;101556.47;5134140;28;20039;-56
2023/03/02 09:42:53;;;;;;;10.18;4.57;;;10.20;62.90;;;10.62;52.95;101542.00;5134823;28;20058;-56
2023/03/02 09:45:39;;;;;;;12.48;4.78;;;10.30;63.60;;;10.67;52.86;101542.22;5112924;28;20059;-56
2023/03/02 09:48:23;;;;;;;9.25;4.63;;;10.40;63.60;;;10.72;52.80;101540.72;5132958;28;20102;-57
2023/03/02 09:51:08;;;;;;;11.35;5.05;;;10.40;63.60;;;10.68;53.02;101546.59;5125918;28;20082;-56
2023/03/02 09:53:47;;;;;;;11.23;5.43;;;10.40;63.90;;;10.64;53.03;101542.97;5130297;28;20051;-59
2023/03/02 09:56:21;;;;;;;13.98;5.50;;;10.40;63.80;;;10.67;53.45;101539.59;5141486;28;20047;-57
2023/03/02 09:58:59;;;;;;;10.77;4.93;;;10.30;64.20;;;10.76;53.04;101538.34;5133992;28;20043;-55
2023/03/02 10:01:40;;;;;;;10.38;4.93;;;10.40;64.00;;;10.77;52.82;101540.13;5134530;28;20059;-56
2023/03/02 10:04:22;;;;;;;12.88;5.13;;;10.50;63.60;;;10.78;52.42;101541.00;5128800;28;20401;-58
2023/03/02 10:07:01;;;;;;;12.10;5.00;;;10.50;63.20;;;10.84;52.37;101533.47;5122188;29;20131;-57
2023/03/02 10:09:35;;;;;;;11.48;5.05;;;10.50;63.10;;;10.93;52.67;101533.88;5129769;28;20043;-57
2023/03/02 10:12:36;;;;;;;9.85;4.70;;;10.60;63.50;;;10.98;52.49;101527.13;5139695;28;20053;-57
2023/03/02 10:15:14;;;;;;;9.95;4.68;;;10.70;63.40;;;11.06;52.50;101536.19;5106623;28;20051;-57
2023/03/02 10:17:59;;;;;;;12.57;4.88;;;10.70;63.20;;;11.12;54.41;101531.25;5129150;28;20311;-59
2023/03/02 10:20:38;;;;;;;8.60;3.22;;;10.80;64.60;;;12.05;66.01;101531.72;5142124;28;20054;-59
2023/03/02 10:23:31;;;;;;;9.40;3.75;;;11.80;81.20;;;12.46;54.89;101524.66;5143460;28;20354;-62
2023/03/02 10:26:26;;;;;;;9.40;4.60;;;12.20;66.80;;;12.42;51.72;101522.75;5125416;28;20411;-62
2023/03/02 10:29:21;;;;;;;9.32;4.18;;;12.20;62.90;;;12.44;52.50;101521.06;5120500;28;20075;-59
2023/03/02 10:32:01;;;;;;;9.10;4.07;;;12.20;63.80;;;12.62;53.59;101513.94;5122637;28;20114;-61
2023/03/02 10:34:38;;;;;;;8.98;4.35;;;12.30;65.70;;;12.70;52.75;101515.09;5125865;28;20047;-59
2023/03/02 10:37:14;;;;;;;9.48;4.25;;;12.50;63.80;;;12.65;51.60;101516.69;5133546;28;20043;-61
2023/03/02 10:39:47;;;;;;;11.90;4.70;;;12.40;62.60;;;12.69;50.94;101509.81;5130530;28;20051;-61
2023/03/02 10:42:27;;;;;;;9.00;4.47;;;12.40;61.70;;;12.66;51.05;101507.09;5137196;28;20039;-58
2023/03/02 10:45:26;;;;;;;9.85;4.50;;;12.40;61.80;;;12.60;51.97;101499.03;5137278;28;20116;-61
2023/03/02 10:48:03;;;;;;;9.70;4.47;;;12.30;63.10;;;12.54;51.55;101496.19;5142053;28;20053;-59
2023/03/02 10:50:35;;;;;;;11.27;4.72;;;12.30;62.20;;;12.50;51.47;101500.38;5125295;28;20070;-58